createdAt,value
2019-03-15T00:00:02.314Z,98810.00
2019-03-15T00:02:35.337Z,98808.00
2019-03-15T00:05:06.962Z,98807.00
2019-03-15T00:07:38.333Z,98801.00
2019-03-15T00:10:09.903Z,98827.00
2019-03-15T00:12:42.291Z,98815.00
2019-03-15T00:15:13.694Z,98827.00
2019-03-15T00:17:45.108Z,98825.00
2019-03-15T00:20:17.717Z,98814.00
2019-03-15T00:22:49.137Z,98824.00
2019-03-15T00:25:20.612Z,98811.00
2019-03-15T00:27:52.080Z,98826.00
2019-03-15T00:30:24.344Z,98815.00
2019-03-15T00:32:55.808Z,98816.00
2019-03-15T00:35:27.175Z,98799.00
2019-03-15T00:37:59.930Z,98814.00
2019-03-15T00:40:31.461Z,98833.00
2019-03-15T00:43:02.925Z,98832.00
2019-03-15T00:45:35.918Z,98858.00
2019-03-15T00:48:07.454Z,98867.00
2019-03-15T00:50:38.888Z,98860.00
2019-03-15T00:53:12.176Z,98861.00
2019-03-15T00:55:43.672Z,98870.00
2019-03-15T00:58:15.074Z,98877.00
2019-03-15T01:00:46.510Z,98873.00
2019-03-15T01:03:17.949Z,98872.00
2019-03-15T01:05:50.363Z,98868.00
2019-03-15T01:08:21.852Z,98874.00
2019-03-15T01:10:53.250Z,98888.00
2019-03-15T01:13:24.694Z,98895.00
2019-03-15T01:15:57.345Z,98893.00
2019-03-15T01:18:28.798Z,98924.00
2019-03-15T01:21:00.187Z,98898.00
2019-03-15T01:23:31.941Z,98908.00
2019-03-15T01:26:03.430Z,98897.00
2019-03-15T01:28:34.878Z,98903.00
2019-03-15T01:31:06.240Z,98897.00
2019-03-15T01:33:37.670Z,98908.00
2019-03-15T01:36:09.112Z,98924.00
2019-03-15T01:38:40.528Z,98920.00
2019-03-15T01:41:11.903Z,98920.00
2019-03-15T01:43:43.346Z,98944.00
2019-03-15T01:46:14.998Z,98938.00
2019-03-15T01:48:46.396Z,98951.00
2019-03-15T01:51:17.799Z,98949.00
2019-03-15T01:53:49.430Z,98958.00
2019-03-15T01:56:20.846Z,98952.00
2019-03-15T01:58:52.282Z,98945.00
2019-03-15T02:01:23.683Z,98942.00
2019-03-15T02:03:55.124Z,98955.00
2019-03-15T02:06:26.478Z,98969.00
2019-03-15T02:08:58.217Z,98967.00
2019-03-15T02:11:29.769Z,98971.00
2019-03-15T02:14:01.710Z,98972.00
2019-03-15T02:17:10.416Z,98974.00
2019-03-15T02:19:47.601Z,98973.00
2019-03-15T02:22:19.492Z,98970.00
2019-03-15T02:24:50.974Z,98986.00
2019-03-15T02:27:23.540Z,98980.00
2019-03-15T02:29:54.975Z,98983.00
2019-03-15T02:32:26.341Z,98981.00
2019-03-15T02:34:57.730Z,98972.00
2019-03-15T02:37:29.206Z,98984.00
2019-03-15T02:40:00.573Z,98990.00
2019-03-15T02:42:32.010Z,98987.00
2019-03-15T02:45:03.438Z,98986.00
2019-03-15T02:47:34.823Z,99002.00
2019-03-15T02:50:06.574Z,99003.00
2019-03-15T02:52:37.954Z,99010.00
2019-03-15T02:55:09.447Z,99018.00
2019-03-15T02:57:40.830Z,99024.00
2019-03-15T03:00:12.431Z,99019.00
2019-03-15T03:02:44.708Z,99024.00
2019-03-15T03:05:16.127Z,99020.00
2019-03-15T03:07:48.227Z,99018.00
2019-03-15T03:10:19.996Z,99025.00
2019-03-15T03:12:51.415Z,99029.00
2019-03-15T03:15:22.915Z,99032.00
2019-03-15T03:17:54.325Z,99030.00
2019-03-15T03:20:25.816Z,99039.00
2019-03-15T03:22:57.196Z,99024.00
2019-03-15T03:25:28.591Z,99023.00
2019-03-15T03:28:01.285Z,99022.00
2019-03-15T03:30:33.098Z,99024.00
2019-03-15T03:33:04.474Z,99030.00
2019-03-15T03:35:35.962Z,99019.00
2019-03-15T03:38:07.374Z,99026.00
2019-03-15T03:40:39.004Z,99025.00
2019-03-15T03:43:10.529Z,99021.00
2019-03-15T03:45:41.986Z,99025.00
2019-03-15T03:48:15.762Z,99028.00
2019-03-15T03:50:46.580Z,99027.00
2019-03-15T03:53:17.981Z,99027.00
2019-03-15T03:55:49.423Z,99032.00
2019-03-15T03:58:21.205Z,99048.00
2019-03-15T04:00:53.713Z,99037.00
2019-03-15T04:03:25.129Z,99054.00
2019-03-15T04:05:56.650Z,99050.00
2019-03-15T04:08:28.042Z,99049.00
2019-03-15T04:10:59.489Z,99053.00
2019-03-15T04:13:31.010Z,99049.00
2019-03-15T04:16:02.472Z,99044.00
2019-03-15T04:18:33.847Z,99040.00
2019-03-15T04:21:05.322Z,99056.00
2019-03-15T04:23:38.212Z,99053.00
2019-03-15T04:26:09.894Z,99053.00
2019-03-15T04:28:41.323Z,99052.00
2019-03-15T04:31:14.077Z,99063.00
2019-03-15T04:33:45.491Z,99060.00
2019-03-15T04:36:17.105Z,99075.00
2019-03-15T04:38:48.488Z,99067.00
2019-03-15T04:41:19.911Z,99074.00
2019-03-15T04:43:51.352Z,99079.00
2019-03-15T04:46:22.762Z,99081.00
2019-03-15T04:48:54.173Z,99083.00
2019-03-15T04:51:25.619Z,99083.00
2019-03-15T04:53:57.019Z,99086.00
2019-03-15T04:56:28.473Z,99089.00
2019-03-15T04:58:59.855Z,99088.00
2019-03-15T05:01:32.063Z,99091.00
2019-03-15T05:04:03.491Z,99080.00
2019-03-15T05:06:34.952Z,99083.00
2019-03-15T05:09:07.591Z,99081.00
2019-03-15T05:11:39.781Z,99085.00
2019-03-15T05:14:11.194Z,99085.00
2019-03-15T05:16:42.660Z,99084.00
2019-03-15T05:19:14.116Z,99073.00
2019-03-15T05:21:45.522Z,99084.00
2019-03-15T05:24:16.997Z,99083.00
2019-03-15T05:26:49.520Z,99085.00
2019-03-15T05:29:20.946Z,99092.00
2019-03-15T05:31:52.426Z,99089.00
2019-03-15T05:34:23.847Z,99091.00
2019-03-15T05:36:55.328Z,99089.00
2019-03-15T05:39:26.702Z,99083.00
2019-03-15T05:41:58.865Z,99081.00
2019-03-15T05:44:30.266Z,99073.00
2019-03-15T05:47:01.675Z,99095.00
2019-03-15T05:49:33.094Z,99107.00
2019-03-15T05:52:04.608Z,99095.00
2019-03-15T05:54:36.014Z,99097.00
2019-03-15T05:57:07.526Z,99096.00
2019-03-15T05:59:38.934Z,99104.00
2019-03-15T06:02:10.682Z,99084.00
2019-03-15T06:04:42.628Z,99088.00
2019-03-15T06:07:14.358Z,99094.00
2019-03-15T06:09:45.797Z,99088.00
2019-03-15T06:12:18.867Z,99079.00
2019-03-15T06:14:51.852Z,99083.00
2019-03-15T06:17:23.340Z,99087.00
2019-03-15T06:19:55.084Z,99077.00
2019-03-15T06:22:26.648Z,99083.00
2019-03-15T06:24:58.034Z,99086.00
2019-03-15T06:27:31.340Z,99086.00
2019-03-15T06:30:02.887Z,99084.00
2019-03-15T06:32:34.314Z,99075.00
2019-03-15T06:35:06.258Z,99076.00
2019-03-15T06:37:37.843Z,99071.00
2019-03-15T06:40:09.375Z,99084.00
2019-03-15T06:42:40.779Z,99071.00
2019-03-15T06:45:12.582Z,99070.00
2019-03-15T06:47:43.986Z,99075.00
2019-03-15T06:50:15.501Z,99081.00
2019-03-15T06:52:47.221Z,99086.00
2019-03-15T06:55:18.834Z,99082.00
2019-03-15T06:57:50.334Z,99088.00
2019-03-15T07:00:21.776Z,99086.00
2019-03-15T07:02:53.353Z,99088.00
2019-03-15T07:05:24.900Z,99101.00
2019-03-15T07:07:56.304Z,99091.00
2019-03-15T07:10:27.972Z,99074.00
2019-03-15T07:12:59.849Z,99082.00
2019-03-15T07:15:31.305Z,99073.00
2019-03-15T07:18:02.756Z,99078.00
2019-03-15T07:20:34.262Z,99068.00
2019-03-15T07:23:05.698Z,99074.00
2019-03-15T07:25:37.184Z,99075.00
2019-03-15T07:28:08.679Z,99058.00
2019-03-15T07:30:40.063Z,99060.00
2019-03-15T07:33:11.524Z,99062.00
2019-03-15T07:35:43.044Z,99061.00
2019-03-15T07:38:14.497Z,99048.00
2019-03-15T07:40:46.032Z,99051.00
2019-03-15T07:43:19.915Z,99043.00
2019-03-15T07:45:50.717Z,99037.00
2019-03-15T07:48:23.185Z,99044.00
2019-03-15T07:50:55.303Z,99024.00
2019-03-15T07:53:26.841Z,99024.00
2019-03-15T07:55:58.282Z,99023.00
2019-03-15T07:58:31.306Z,99021.00
2019-03-15T08:01:02.986Z,99026.00
2019-03-15T08:03:34.988Z,99031.00
2019-03-15T08:06:06.598Z,99018.00
2019-03-15T08:08:38.202Z,99026.00
2019-03-15T08:11:09.899Z,99025.00
2019-03-15T08:13:41.412Z,99027.00
2019-03-15T08:16:13.160Z,99022.00
2019-03-15T08:18:44.900Z,99018.00
2019-03-15T08:21:16.303Z,99027.00
2019-03-15T08:23:47.782Z,99018.00
2019-03-15T08:26:19.782Z,99018.00
2019-03-15T08:28:51.219Z,99013.00
2019-03-15T08:31:23.402Z,99022.00
2019-03-15T08:33:55.076Z,99022.00
2019-03-15T08:36:26.501Z,99025.00
2019-03-15T08:38:59.008Z,99021.00
2019-03-15T08:41:30.427Z,99025.00
2019-03-15T08:44:01.843Z,99016.00
2019-03-15T08:46:33.326Z,99026.00
2019-03-15T08:49:04.850Z,99011.00
2019-03-15T08:51:36.294Z,99013.00
2019-03-15T08:54:07.733Z,99016.00
2019-03-15T08:56:40.192Z,99010.00
2019-03-15T08:59:11.710Z,98993.00
2019-03-15T09:01:43.174Z,98996.00
2019-03-15T09:04:14.676Z,98986.00
2019-03-15T09:06:46.071Z,98993.00
2019-03-15T09:09:17.690Z,98982.00
2019-03-15T09:11:50.269Z,98968.00
2019-03-15T09:14:21.700Z,98973.00
2019-03-15T09:16:53.215Z,98974.00
2019-03-15T09:19:24.708Z,98967.00
2019-03-15T09:21:56.188Z,98966.00
2019-03-15T09:24:27.551Z,98947.00
2019-03-15T09:27:00.063Z,98937.00
2019-03-15T09:29:31.500Z,98936.00
2019-03-15T09:32:07.673Z,98952.00
2019-03-15T09:34:36.072Z,98962.00
2019-03-15T09:37:07.503Z,98949.00
2019-03-15T09:39:40.505Z,98926.00
2019-03-15T09:42:11.961Z,98919.00
2019-03-15T09:44:43.481Z,98927.00
2019-03-15T09:47:14.937Z,98925.00
2019-03-15T09:49:47.432Z,98897.00
2019-03-15T09:52:18.927Z,98898.00
2019-03-15T09:54:50.347Z,98876.00
2019-03-15T09:57:21.785Z,98864.00
2019-03-15T09:59:53.278Z,98854.00
2019-03-15T10:02:30.245Z,98836.00
2019-03-15T10:05:10.111Z,98836.00
2019-03-15T10:07:38.556Z,98831.00
2019-03-15T10:10:13.470Z,98826.00
2019-03-15T10:12:37.371Z,98835.00
2019-03-15T10:15:10.170Z,98829.00
2019-03-15T10:17:41.579Z,98828.00
2019-03-15T10:20:13.130Z,98816.00
2019-03-15T10:22:45.617Z,98807.00
2019-03-15T10:25:17.359Z,98798.00
2019-03-15T10:27:48.828Z,98792.00
2019-03-15T10:30:20.375Z,98796.00
2019-03-15T10:32:51.760Z,98782.00
2019-03-15T10:35:23.203Z,98760.00
2019-03-15T10:37:54.780Z,98760.00
2019-03-15T10:40:26.307Z,98739.00
2019-03-15T10:42:57.846Z,98730.00
2019-03-15T10:45:29.334Z,98728.00
2019-03-15T10:48:00.833Z,98723.00
2019-03-15T10:50:32.355Z,98712.00
2019-03-15T10:53:03.840Z,98708.00
2019-03-15T10:55:35.546Z,98697.00
2019-03-15T10:58:06.947Z,98689.00
2019-03-15T11:00:38.447Z,98690.00
2019-03-15T11:03:12.892Z,98682.00
2019-03-15T11:05:43.088Z,98674.00
2019-03-15T11:08:14.518Z,98675.00
2019-03-15T11:10:45.986Z,98670.00
2019-03-15T11:13:17.419Z,98665.00
2019-03-15T11:15:48.947Z,98647.00
2019-03-15T11:18:20.416Z,98646.00
2019-03-15T11:20:51.908Z,98641.00
2019-03-15T11:23:23.332Z,98637.00
2019-03-15T11:25:54.756Z,98626.00
2019-03-15T11:28:26.192Z,98614.00
2019-03-15T11:31:00.610Z,98609.00
2019-03-15T11:33:30.741Z,98609.00
2019-03-15T11:36:02.626Z,98601.00
2019-03-15T11:38:34.068Z,98600.00
2019-03-15T11:41:05.837Z,98589.00
2019-03-15T11:43:37.284Z,98599.00
2019-03-15T11:46:08.808Z,98577.00
2019-03-15T11:48:41.070Z,98576.00
2019-03-15T11:51:12.528Z,98564.00
2019-03-15T11:53:45.053Z,98560.00
2019-03-15T11:56:26.382Z,98549.00
2019-03-15T11:58:49.788Z,98546.00
2019-03-15T12:01:21.234Z,98535.00
2019-03-15T12:03:53.552Z,98529.00
2019-03-15T12:06:25.036Z,98529.00
2019-03-15T12:08:56.458Z,98525.00
2019-03-15T12:11:27.940Z,98523.00
2019-03-15T12:14:00.497Z,98500.00
2019-03-15T12:16:32.010Z,98504.00
2019-03-15T12:19:03.502Z,98506.00
2019-03-15T12:21:34.978Z,98497.00
2019-03-15T12:24:06.359Z,98479.00
2019-03-15T12:26:40.608Z,98474.00
2019-03-15T12:29:11.928Z,98466.00
2019-03-15T12:31:43.434Z,98448.00
2019-03-15T12:34:14.934Z,98479.00
2019-03-15T12:36:46.372Z,98475.00
2019-03-15T12:39:17.763Z,98470.00
2019-03-15T12:41:49.184Z,98460.00
2019-03-15T12:44:20.684Z,98454.00
2019-03-15T12:46:52.262Z,98448.00
2019-03-15T12:49:25.635Z,98454.00
2019-03-15T12:51:56.866Z,98451.00
2019-03-15T12:54:28.469Z,98464.00
2019-03-15T12:56:59.914Z,98453.00
2019-03-15T12:59:31.319Z,98459.00
2019-03-15T13:02:03.776Z,98456.00
2019-03-15T13:04:35.231Z,98453.00
2019-03-15T13:07:06.809Z,98455.00
2019-03-15T13:09:38.288Z,98445.00
2019-03-15T13:12:09.742Z,98453.00
2019-03-15T13:14:41.561Z,98454.00
2019-03-15T13:17:14.042Z,98434.00
2019-03-15T13:19:54.928Z,98442.00
2019-03-15T13:22:18.730Z,98439.00
2019-03-15T13:24:50.193Z,98443.00
2019-03-15T13:27:21.751Z,98460.00
2019-03-15T13:29:54.178Z,98450.00
2019-03-15T13:32:25.656Z,98435.00
2019-03-15T13:34:57.706Z,98426.00
2019-03-15T13:37:29.160Z,98433.00
2019-03-15T13:40:00.573Z,98427.00
2019-03-15T13:42:32.380Z,98436.00
2019-03-15T13:45:05.506Z,98439.00
2019-03-15T13:47:37.126Z,98424.00
2019-03-15T13:50:10.747Z,98439.00
2019-03-15T13:52:42.205Z,98458.00
2019-03-15T13:55:13.899Z,98433.00
2019-03-15T13:57:45.408Z,98426.00
2019-03-15T14:00:17.132Z,98439.00
2019-03-15T14:02:48.699Z,98413.00
2019-03-15T14:05:20.237Z,98431.00
2019-03-15T14:07:51.705Z,98448.00
2019-03-15T14:10:23.119Z,98453.00
2019-03-15T14:12:54.654Z,98431.00
2019-03-15T14:15:26.087Z,98452.00
2019-03-15T14:17:57.533Z,98463.00
2019-03-15T14:20:29.013Z,98446.00
2019-03-15T14:23:00.487Z,98466.00
2019-03-15T14:25:32.059Z,98473.00
2019-03-15T14:28:03.586Z,98480.00
2019-03-15T14:30:36.044Z,98493.00
2019-03-15T14:33:07.719Z,98500.00
2019-03-15T14:35:40.120Z,98513.00
2019-03-15T14:38:11.778Z,98479.00
2019-03-15T14:40:43.227Z,98515.00
2019-03-15T14:43:14.811Z,98495.00
2019-03-15T14:45:46.457Z,98502.00
2019-03-15T14:48:17.956Z,98505.00
2019-03-15T14:50:49.379Z,98497.00
2019-03-15T14:53:20.868Z,98506.00
2019-03-15T14:55:52.254Z,98523.00
2019-03-15T14:58:24.085Z,98530.00
2019-03-15T15:00:56.555Z,98514.00
2019-03-15T15:03:28.047Z,98546.00
2019-03-15T15:05:59.493Z,98512.00
2019-03-15T15:08:30.979Z,98522.00
2019-03-15T15:11:02.448Z,98529.00
2019-03-15T15:13:33.997Z,98523.00
2019-03-15T15:16:05.452Z,98527.00
2019-03-15T15:18:36.927Z,98547.00
2019-03-15T15:21:08.449Z,98536.00
2019-03-15T15:23:39.936Z,98535.00
2019-03-15T15:26:11.785Z,98526.00
2019-03-15T15:28:43.243Z,98536.00
2019-03-15T15:31:14.637Z,98543.00
2019-03-15T15:33:46.095Z,98551.00
2019-03-15T15:36:17.581Z,98546.00
2019-03-15T15:38:49.051Z,98542.00
2019-03-15T15:41:20.491Z,98530.00
2019-03-15T15:43:51.941Z,98530.00
2019-03-15T15:46:23.377Z,98539.00
2019-03-15T15:48:54.876Z,98537.00
2019-03-15T15:51:26.434Z,98539.00
2019-03-15T15:53:58.109Z,98557.00
2019-03-15T15:56:30.888Z,98549.00
2019-03-15T15:59:03.215Z,98552.00
2019-03-15T16:01:35.965Z,98570.00
2019-03-15T16:04:07.435Z,98558.00
2019-03-15T16:06:38.878Z,98563.00
2019-03-15T16:09:10.475Z,98553.00
2019-03-15T16:11:41.965Z,98563.00
2019-03-15T16:14:13.549Z,98553.00
2019-03-15T16:16:44.989Z,98573.00
2019-03-15T16:19:16.467Z,98574.00
2019-03-15T16:21:47.888Z,98569.00
2019-03-15T16:24:19.317Z,98602.00
2019-03-15T16:26:50.773Z,98587.00
2019-03-15T16:29:22.255Z,98591.00
2019-03-15T16:31:53.690Z,98601.00
2019-03-15T16:34:26.114Z,98584.00
2019-03-15T16:36:57.538Z,98595.00
2019-03-15T16:39:29.010Z,98617.00
2019-03-15T16:42:00.421Z,98613.00
2019-03-15T16:44:31.973Z,98621.00
2019-03-15T16:47:03.697Z,98599.00
2019-03-15T16:49:35.702Z,98640.00
2019-03-15T16:52:07.111Z,98629.00
2019-03-15T16:54:38.663Z,98612.00
2019-03-15T16:57:10.113Z,98614.00
2019-03-15T16:59:41.573Z,98614.00
2019-03-15T17:02:13.021Z,98620.00
2019-03-15T17:04:44.491Z,98618.00
2019-03-15T17:07:16.790Z,98644.00
2019-03-15T17:09:48.291Z,98659.00
2019-03-15T17:12:19.798Z,98635.00
2019-03-15T17:14:51.269Z,98626.00
2019-03-15T17:17:23.399Z,98635.00
2019-03-15T17:19:54.815Z,98662.00
2019-03-15T17:22:26.308Z,98648.00
2019-03-15T17:24:57.806Z,98654.00
2019-03-15T17:27:29.244Z,98665.00
2019-03-15T17:30:09.467Z,98681.00
2019-03-15T17:32:40.951Z,98690.00
2019-03-15T17:35:13.059Z,98669.00
2019-03-15T17:37:44.649Z,98682.00
2019-03-15T17:40:16.117Z,98681.00
2019-03-15T17:42:47.686Z,98673.00
2019-03-15T17:45:20.313Z,98711.00
2019-03-15T17:47:51.711Z,98702.00
2019-03-15T17:50:23.201Z,98715.00
2019-03-15T17:52:54.609Z,98720.00
2019-03-15T17:55:26.079Z,98719.00
2019-03-15T17:58:00.174Z,98740.00
2019-03-15T18:00:37.492Z,98724.00
2019-03-15T18:03:20.079Z,98727.00
2019-03-15T18:05:42.316Z,98757.00
2019-03-15T18:08:13.837Z,98717.00
2019-03-15T18:10:45.389Z,98766.00
2019-03-15T18:13:16.956Z,98761.00
2019-03-15T18:15:48.409Z,98749.00
2019-03-15T18:18:19.823Z,98760.00
2019-03-15T18:20:51.273Z,98774.00
2019-03-15T18:23:22.698Z,98766.00
2019-03-15T18:25:54.181Z,98745.00
2019-03-15T18:28:25.591Z,98769.00
2019-03-15T18:30:59.298Z,98787.00
2019-03-15T18:33:30.175Z,98777.00
2019-03-15T18:36:01.613Z,98792.00
2019-03-15T18:38:33.129Z,98793.00
2019-03-15T18:41:04.588Z,98780.00
2019-03-15T18:43:36.217Z,98817.00
2019-03-15T18:46:07.765Z,98812.00
2019-03-15T18:48:39.383Z,98805.00
2019-03-15T18:51:11.469Z,98812.00
2019-03-15T18:53:42.900Z,98834.00
2019-03-15T18:56:14.453Z,98820.00
2019-03-15T18:58:45.877Z,98831.00
2019-03-15T19:01:17.427Z,98825.00
2019-03-15T19:03:48.835Z,98842.00
2019-03-15T19:06:20.459Z,98853.00
2019-03-15T19:08:52.937Z,98830.00
2019-03-15T19:11:24.402Z,98830.00
2019-03-15T19:13:55.896Z,98846.00
2019-03-15T19:16:27.456Z,98862.00
2019-03-15T19:18:58.948Z,98850.00
2019-03-15T19:21:30.546Z,98857.00
2019-03-15T19:24:02.079Z,98853.00
2019-03-15T19:26:33.547Z,98859.00
2019-03-15T19:29:05.040Z,98869.00
2019-03-15T19:31:36.532Z,98866.00
2019-03-15T19:34:08.007Z,98871.00
2019-03-15T19:36:40.482Z,98898.00
2019-03-15T19:39:11.934Z,98870.00
2019-03-15T19:41:43.408Z,98895.00
2019-03-15T19:44:14.832Z,98893.00
2019-03-15T19:46:46.281Z,98903.00
2019-03-15T19:49:17.887Z,98897.00
2019-03-15T19:51:49.372Z,98897.00
2019-03-15T19:54:20.897Z,98919.00
2019-03-15T19:56:52.513Z,98932.00
2019-03-15T19:59:24.069Z,98916.00
2019-03-15T20:01:55.679Z,98921.00
2019-03-15T20:04:27.195Z,98916.00
2019-03-15T20:07:00.674Z,98936.00
2019-03-15T20:09:32.254Z,98934.00
2019-03-15T20:12:03.778Z,98939.00
2019-03-15T20:14:35.347Z,98930.00
2019-03-15T20:17:06.908Z,98950.00
2019-03-15T20:19:38.471Z,98957.00
2019-03-15T20:22:09.983Z,98963.00
2019-03-15T20:24:41.423Z,98960.00
2019-03-15T20:27:13.019Z,98969.00
2019-03-15T20:29:44.646Z,98972.00
2019-03-15T20:32:16.136Z,98987.00
2019-03-15T20:34:47.702Z,98977.00
2019-03-15T20:37:19.292Z,98989.00
2019-03-15T20:39:50.822Z,98983.00
2019-03-15T20:42:22.359Z,99003.00
2019-03-15T20:44:53.789Z,98989.00
2019-03-15T20:47:25.300Z,98991.00
2019-03-15T20:49:56.898Z,98994.00
2019-03-15T20:52:28.446Z,99001.00
2019-03-15T20:55:00.250Z,98989.00
2019-03-15T20:57:31.930Z,99007.00
2019-03-15T21:00:03.562Z,99004.00
2019-03-15T21:02:36.817Z,99012.00
2019-03-15T21:05:09.646Z,99012.00
2019-03-15T21:07:43.437Z,99008.00
2019-03-15T21:10:15.439Z,99017.00
2019-03-15T21:12:47.090Z,99028.00
2019-03-15T21:15:19.886Z,99042.00
2019-03-15T21:17:52.380Z,99042.00
2019-03-15T21:20:24.976Z,99053.00
2019-03-15T21:22:56.591Z,99058.00
2019-03-15T21:25:28.361Z,99057.00
2019-03-15T21:27:59.872Z,99063.00
2019-03-15T21:30:32.389Z,99053.00
2019-03-15T21:33:03.931Z,99076.00
2019-03-15T21:35:35.506Z,99073.00
2019-03-15T21:38:07.039Z,99099.00
2019-03-15T21:40:38.625Z,99091.00
2019-03-15T21:43:10.083Z,99071.00
2019-03-15T21:45:41.559Z,99104.00
2019-03-15T21:48:14.692Z,99105.00
2019-03-15T21:50:46.121Z,99108.00
2019-03-15T21:53:17.626Z,99122.00
2019-03-15T21:55:49.972Z,99134.00
2019-03-15T21:58:21.416Z,99127.00
2019-03-15T22:01:02.142Z,99136.00
2019-03-15T22:03:25.955Z,99129.00
2019-03-15T22:05:57.362Z,99127.00
2019-03-15T22:08:28.895Z,99142.00
2019-03-15T22:11:01.535Z,99155.00
2019-03-15T22:13:33.068Z,99142.00
2019-03-15T22:16:04.611Z,99128.00
2019-03-15T22:18:36.073Z,99148.00
2019-03-15T22:21:07.673Z,99150.00
2019-03-15T22:23:39.553Z,99147.00
2019-03-15T22:26:11.032Z,99156.00
2019-03-15T22:28:42.592Z,99155.00
2019-03-15T22:31:16.900Z,99171.00
2019-03-15T22:33:47.697Z,99168.00
2019-03-15T22:36:19.557Z,99155.00
2019-03-15T22:38:51.085Z,99162.00
2019-03-15T22:41:22.583Z,99174.00
2019-03-15T22:43:54.095Z,99180.00
2019-03-15T22:46:25.573Z,99179.00
2019-03-15T22:48:58.055Z,99189.00
2019-03-15T22:51:29.465Z,99176.00
2019-03-15T22:54:00.935Z,99172.00
2019-03-15T22:56:32.360Z,99168.00
2019-03-15T22:59:03.851Z,99174.00
2019-03-15T23:01:35.273Z,99166.00
2019-03-15T23:04:06.833Z,99180.00
2019-03-15T23:06:38.234Z,99186.00
2019-03-15T23:09:09.800Z,99210.00
2019-03-15T23:11:41.271Z,99203.00
2019-03-15T23:14:13.087Z,99199.00
2019-03-15T23:16:44.527Z,99207.00
2019-03-15T23:19:15.979Z,99227.00
2019-03-15T23:21:47.438Z,99219.00
2019-03-15T23:24:18.927Z,99221.00
2019-03-15T23:26:50.694Z,99227.00
2019-03-15T23:29:22.225Z,99240.00
2019-03-15T23:31:54.113Z,99227.00
2019-03-15T23:34:25.617Z,99229.00
2019-03-15T23:36:57.064Z,99240.00
2019-03-15T23:39:28.739Z,99247.00
2019-03-15T23:42:00.209Z,99248.00
2019-03-15T23:44:31.778Z,99242.00
2019-03-15T23:47:03.223Z,99253.00
2019-03-15T23:49:34.677Z,99269.00
2019-03-15T23:52:06.133Z,99249.00
2019-03-15T23:54:37.609Z,99289.00
2019-03-15T23:57:09.158Z,99261.00
2019-03-15T23:59:40.649Z,99263.00
